AirNav   Pilot Hours Calculator
 
 1405 users online  

6JY8 Cablevision Bethpage Heliport
Bethpage, New York, USA

GOING TO BETHPAGE?


FAA INFORMATION EFFECTIVE 11 AUGUST 2022

Location

FAA Identifier: 6JY8
Lat/Long: 40-45-34.8300N 073-29-47.4100W
40-45.580500N 073-29.790167W
40.7596750,-73.4965028
(estimated)
Elevation: 130.1 ft. / 39.7 m (surveyed)
Variation: 13W (2010)
Time zone: UTC -4 (UTC -5 during Standard Time)
Zip code: 11714

Heliport Operations

Heliport use: Private use. Permission required prior to landing
Activation date: 05/2005
Control tower: no
ARTCC: NEW YORK CENTER
FSS: NEW YORK FLIGHT SERVICE STATION
NOTAMs facility: FDC (NOTAM-D service not available)
Attendance: UNATNDD
Wind indicator: lighted
Segmented circle: no
Lights: FOR PERIMETER LGTS, RY H1 & H2, CALL 516-694-3023.

Heliport Communications

WX ASOS at FRG (4 nm SE): PHONE 631-752-8129
WX ASOS at JFK (15 nm SW): 128.725 (718-656-0956)
WX ASOS at LGA (17 nm W): PHONE 718-672-6317
WX ASOS at ISP (18 nm E): 120.725 (631-471-0131)

Nearby radio navigation aids

VOR radial/distance  VOR name  Freq  Var
DPKr270/9.0DEER PARK VOR/DME117.7012W
JFKr071/14.6KENNEDY VOR/DME115.9012W
LGAr107/17.0LA GUARDIA VOR/DME113.1012W
CRIr075/20.1CANARSIE VOR/DME112.3011W
TEBr113/26.2TETERBORO VOR/DME108.4011W
BDRr227/29.4BRIDGEPORT VOR/DME108.8012W
CMKr185/31.5CARMEL VOR/DME116.6012W
CCCr265/33.3CALVERTON VOR/DME117.2013W

 
NDB name  Hdg/Dist  Freq  Var  ID
FRIKK226/1.240714WFR ..-. .-.
LOKKS292/14.036614WIS .. ...

Heliport Services

Runway Information

Helipad H1

Dimensions: 80 x 80 ft. / 24 x 24 m
Surface: concrete
Runway edge lights: PERI
Latitude: 40-45.580500N
Longitude: 073-29.790167W
Elevation: 130.0 ft.
Traffic pattern: leftleft

Helipad H2

Dimensions: 80 x 80 ft. / 24 x 24 m
Surface: concrete
Runway edge lights: PERI
Traffic pattern: leftleft

Heliport Ownership and Management from official FAA records

Ownership: Privately-owned
Owner: CABLEVISION SYSTEMS CORP.
111 STEWART AVE
BETHPAGE, NY 11714
Phone 516-803-2682
Manager: DANA TRIOLO
1111 STEWART AVE.
BETHPAGE, NY 11714
Phone 516-803-2682
CELL 516-353-9546

Additional Remarks

FOR CD CTC NEW YORK APCH AT 516-683-2962.

Instrument Procedures

There are no published instrument procedures at 6JY8.

Some nearby airports with instrument procedures:

KFRG - Republic Airport (4 nm SE)
KJFK - John F Kennedy International Airport (15 nm SW)
KLGA - LaGuardia Airport (17 nm W)
KISP - Long Island Mac Arthur Airport (18 nm E)
KHPN - Westchester County Airport (21 nm NW)
 
Loc | Ops | Rwys | IFR | FBO | Links
Com | Nav | Svcs | Stats | Notes
Area around 6JY8 (Cablevision Bethpage Heliport)
 
Road maps at: MapQuest Bing Google
 
Aerial photo
No photo
 
Sectional chart

 
Airport distance calculator
Flying to Cablevision Bethpage Heliport? Find the distance to fly.

From to 6JY8

Sunrise and sunset
Times for 18-Aug-2022
 Local
(UTC-4)
 Zulu
(UTC)
Morning civil twilight05:3909:39
Sunrise06:0810:08
Sunset19:4823:48
Evening civil twilight20:1700:17

Current date and time
Zulu (UTC)  18-Aug-2022 23:45:07
Local (UTC-4)  18-Aug-2022 19:45:07
 
METAR
KFRG 
4nm SE 
182253Z 22014KT 10SM CLR 26/17 A2990 RMK AO2 SLP124 T02560167
KJFK 
14nm SW 
182251Z 19017KT 10SM FEW065 SCT100 SCT250 24/18 A2989 RMK AO2 SLP123 VCSH NW T02440183
KLGA 
18nm W 
182251Z 18009KT 10SM FEW065 SCT090 BKN130 BKN250 28/14 A2987 RMK AO2 SLP116 VCSH N-NE T02780139
KISP 
18nm E 
182256Z 23009KT 10SM FEW045 SCT065 SCT085 SCT130 24/18 A2990 RMK AO2 SLP125 VCSH NW-NE T02440178
TAF
KJFK 
14nm SW 
181952Z 1820/1924 18014KT P6SM SCT070 SCT250 FM190000 24008KT P6SM FEW060 FM190500 VRB04KT P6SM SKC FM191300 26007KT P6SM SKC FM191600 23010KT P6SM SKC FM191800 18010G18KT P6SM SCT080
KLGA 
18nm W 
181952Z 1820/1924 22012G17KT P6SM SCT070 SCT250 FM190000 29008KT P6SM FEW060 FM190400 VRB04KT P6SM SKC FM191300 27006KT P6SM SKC FM191800 19010G18KT P6SM SCT080
KISP 
18nm E 
181952Z 1820/1918 22012KT P6SM SCT060 SCT250 FM190000 26007KT P6SM FEW060 FM190400 VRB04KT P6SM FEW060 FM191200 26007KT P6SM SKC FM191700 20010KT P6SM SCT070
NOTAMs
Click for the latest NOTAMs
NOTAMs are issued by the DoD/FAA and will open in a separate window not controlled by AirNav.

 

 
 

Would you like to see your business listed on this page?

 If your business provides an interesting product or service to pilots, flight crews, aircraft, or users of the Cablevision Bethpage Heliport, you should consider listing it here.  To start the listing process, click on the button below
 
Add a business
 

Other Pages about Cablevision Bethpage Heliport

Update a link
 
Copyright © AirNav, LLC. All rights reserved. Privacy Policy  Contact